Time;durP1;ratioP1;P1;durP2;ratioP2;P2;SDS_P1;SDS_P2;PMS_P1;PMS_P2;Temp;Humidity;BMP_temperature;BMP_pressure;BME280_temperature;BME280_humidity;BME280_pressure;Samples;Min_cycle;Max_cycle;Signal;HPM_P1;HPM_P2
2021/04/08 00:02:00;;;;;;;;;;;0.40;99.90;;;;;;20924178;28;20032;-76
2021/04/08 00:12:00;;;;;;;4.07;2.03;;;0.30;99.90;;;;;;20920207;28;19912;-75
2021/04/08 00:22:01;;;;;;;7.70;2.75;;;0.20;99.90;;;;;;20851038;28;20053;-76
2021/04/08 00:32:02;;;;;;;4.50;2.40;;;-0.20;99.90;;;;;;20813803;28;20570;-75
2021/04/08 00:42:05;;;;;;;4.45;2.20;;;-0.20;99.90;;;;;;20914359;23;20044;-77
2021/04/08 00:52:06;;;;;;;9.30;2.70;;;0.00;99.90;;;;;;20963994;28;20033;-78
2021/04/08 01:02:08;;;;;;;4.47;2.53;;;0.00;99.90;;;;;;20894446;28;20116;-78
2021/04/08 01:12:08;;;;;;;16.50;3.03;;;-0.20;99.90;;;;;;20871919;28;20030;-77
2021/04/08 01:22:31;;;;;;;4.68;2.70;;;-0.20;99.90;;;;;;20876369;28;20030;-77
2021/04/08 01:32:34;;;;;;;7.60;3.13;;;-0.10;99.90;;;;;;20890390;28;20124;-78
2021/04/08 01:42:35;;;;;;;5.38;2.45;;;-0.10;99.90;;;;;;20881333;28;20042;-78
2021/04/08 01:52:40;;;;;;;10.30;2.90;;;-0.40;99.90;;;;;;20839232;28;20060;-78
2021/04/08 02:02:45;;;;;;;6.45;2.88;;;-0.80;99.90;;;;;;21005612;28;20085;-78
2021/04/08 02:12:49;;;;;;;4.57;2.10;;;-0.70;99.90;;;;;;21005721;28;20033;-78
2021/04/08 02:22:54;;;;;;;5.25;2.65;;;-0.80;99.90;;;;;;21004522;28;20032;-78
2021/04/08 02:32:55;;;;;;;5.07;2.42;;;-1.00;99.90;;;;;;21004511;28;20067;-78
2021/04/08 02:42:56;;;;;;;5.40;2.63;;;-0.80;99.90;;;;;;20988609;28;20028;-78
2021/04/08 02:53:30;;;;;;;5.10;2.40;;;-0.80;99.90;;;;;;21005221;28;20063;-78
2021/04/08 03:03:36;;;;;;;5.95;2.47;;;-1.00;99.90;;;;;;20971997;28;20515;-78
2021/04/08 03:13:42;;;;;;;6.82;2.72;;;-1.00;99.90;;;;;;20921788;28;20045;-77
2021/04/08 03:23:44;;;;;;;8.80;3.40;;;-1.00;99.90;;;;;;20916426;28;20037;-77
2021/04/08 03:33:45;;;;;;;10.15;3.22;;;-1.00;99.90;;;;;;20870848;28;20056;-78
2021/04/08 03:43:47;;;;;;;8.45;3.53;;;-1.30;99.90;;;;;;20882325;28;20518;-78
2021/04/08 03:53:48;;;;;;;6.95;3.20;;;-1.10;99.90;;;;;;20913594;28;20025;-77
2021/04/08 04:03:50;;;;;;;11.13;3.08;;;-1.20;99.90;;;;;;20912202;28;20488;-76
2021/04/08 04:13:53;;;;;;;5.43;3.17;;;-1.20;99.90;;;;;;20909385;28;20391;-76
2021/04/08 04:23:53;;;;;;;6.75;3.05;;;-0.90;99.90;;;;;;20982357;28;20382;-76
2021/04/08 04:33:54;;;;;;;14.63;3.88;;;-0.80;99.90;;;;;;20984163;28;20040;-76
2021/04/08 04:43:55;;;;;;;14.18;4.05;;;-0.90;99.90;;;;;;20999915;28;20035;-76
2021/04/08 04:53:56;;;;;;;16.70;4.15;;;-0.80;99.90;;;;;;20999834;28;20067;-76
2021/04/08 05:03:57;;;;;;;6.45;3.33;;;-1.00;99.90;;;;;;20973607;28;20399;-76
2021/04/08 05:13:58;;;;;;;10.40;2.97;;;-0.90;99.90;;;;;;20999353;28;20116;-76
2021/04/08 05:23:59;;;;;;;4.68;2.50;;;-0.70;99.90;;;;;;20954300;28;20506;-77
2021/04/08 05:34:00;;;;;;;10.07;2.95;;;-0.50;99.90;;;;;;20886664;28;20112;-76
2021/04/08 05:44:03;;;;;;;7.03;3.10;;;-0.90;99.90;;;;;;20879148;28;20492;-77
2021/04/08 05:54:07;;;;;;;8.98;2.85;;;-0.50;99.90;;;;;;20914838;28;20024;-76
2021/04/08 06:04:07;;;;;;;10.50;3.20;;;0.30;99.90;;;;;;20912455;28;20025;-76
2021/04/08 06:14:08;;;;;;;;;;;0.90;99.90;;;;;;20912849;28;20040;-76
2021/04/08 06:24:09;;;;;;;11.73;4.72;;;1.40;99.90;;;;;;20929572;28;20368;-77
2021/04/08 06:34:10;;;;;;;8.93;3.63;;;2.00;99.90;;;;;;20985819;28;20032;-77
2021/04/08 06:44:15;;;;;;;7.75;2.78;;;2.40;99.90;;;;;;21011530;22;20053;-74
2021/04/08 06:54:17;;;;;;;12.18;3.85;;;2.20;99.90;;;;;;20997563;28;20036;-75
2021/04/08 07:04:18;;;;;;;10.95;5.00;;;3.70;99.90;;;;;;20973927;28;20041;-76
2021/04/08 07:14:18;;;;;;;7.53;3.93;;;4.60;99.90;;;;;;20942363;28;20041;-75
2021/04/08 07:24:23;;;;;;;7.13;3.40;;;5.30;99.90;;;;;;20929138;28;20031;-74
2021/04/08 07:34:35;;;;;;;6.63;3.35;;;6.30;99.90;;;;;;20992616;28;20036;-75
2021/04/08 07:44:52;;;;;;;5.32;3.20;;;7.10;99.90;;;;;;20977995;28;20444;-77
2021/04/08 07:55:05;;;;;;;5.15;2.72;;;7.70;99.90;;;;;;20945291;28;20075;-76
2021/04/08 08:05:28;;;;;;;8.15;2.65;;;7.40;99.90;;;;;;21002267;28;20033;-76
2021/04/08 08:15:30;;;;;;;6.70;2.20;;;6.90;99.90;;;;;;21004691;28;20546;-75
2021/04/08 08:25:30;;;;;;;;;;;7.30;99.90;;;;;;20981776;28;20029;-76
2021/04/08 08:35:32;;;;;;;9.27;1.90;;;7.00;99.90;;;;;;20918656;28;19916;-76
2021/04/08 08:45:34;;;;;;;3.40;1.98;;;7.60;99.90;;;;;;20918798;28;20475;-76
2021/04/08 08:55:35;;;;;;;7.80;2.63;;;7.60;99.90;;;;;;20917112;28;20557;-75
2021/04/08 09:05:36;;;;;;;6.50;2.88;;;8.30;99.90;;;;;;20917335;28;20060;-77
2021/04/08 09:15:38;;;;;;;6.00;2.60;;;8.60;98.90;;;;;;20916367;28;20037;-76
2021/04/08 09:25:56;;;;;;;8.30;2.83;;;7.90;99.90;;;;;;20916580;28;20398;-76
2021/04/08 09:35:57;;;;;;;7.45;2.28;;;8.90;99.90;;;;;;20916027;28;20078;-74
2021/04/08 09:46:02;;;;;;;6.00;3.03;;;9.90;95.20;;;;;;20915999;28;20025;-75
2021/04/08 09:56:06;;;;;;;6.95;3.30;;;10.90;97.40;;;;;;20913422;28;20100;-74
2021/04/08 10:06:18;;;;;;;7.13;2.80;;;11.60;97.70;;;;;;20895489;28;20534;-76
2021/04/08 10:16:18;;;;;;;5.70;2.60;;;10.10;93.20;;;;;;20914705;28;20033;-77
2021/04/08 10:26:25;;;;;;;16.00;6.53;;;10.50;97.70;;;;;;20914797;28;20032;-76
2021/04/08 10:36:32;;;;;;;3.72;2.03;;;10.20;94.70;;;;;;20912209;28;20041;-75
2021/04/08 10:46:33;;;;;;;6.85;2.55;;;10.50;88.70;;;;;;20909374;28;20060;-75
2021/04/08 10:56:35;;;;;;;5.35;2.28;;;11.60;91.30;;;;;;20912533;28;20044;-76
2021/04/08 11:06:36;;;;;;;4.87;2.37;;;12.60;91.30;;;;;;20911122;28;20114;-76
2021/04/08 11:16:37;;;;;;;3.30;2.42;;;13.00;83.20;;;;;;20909344;28;20029;-77
2021/04/08 11:26:48;;;;;;;5.50;2.25;;;11.70;90.00;;;;;;20911877;28;20112;-77
2021/04/08 11:36:53;;;;;;;3.75;2.35;;;12.00;88.80;;;;;;20925148;28;20112;-76
2021/04/08 11:46:54;;;;;;;4.50;2.33;;;11.60;87.40;;;;;;20931511;28;20051;-77
2021/04/08 11:57:05;;;;;;;6.88;2.45;;;11.20;84.90;;;;;;20929767;28;20053;-77
2021/04/08 12:07:06;;;;;;;4.97;3.17;;;11.80;86.30;;;;;;20924066;28;20111;-77
2021/04/08 12:17:11;;;;;;;6.83;2.80;;;10.90;81.60;;;;;;20920282;28;20039;-76
2021/04/08 12:27:19;;;;;;;5.85;3.00;;;11.30;86.00;;;;;;20919845;28;20040;-77
2021/04/08 12:37:20;;;;;;;7.93;2.70;;;12.60;82.70;;;;;;20920919;28;20052;-76
2021/04/08 12:47:21;;;;;;;6.95;2.78;;;11.90;82.80;;;;;;20926399;28;20116;-76
2021/04/08 12:57:22;;;;;;;4.57;2.60;;;13.10;78.90;;;;;;20923183;28;20060;-76
2021/04/08 13:07:23;;;;;;;4.55;2.80;;;12.60;80.10;;;;;;20907120;28;20029;-76
2021/04/08 13:17:24;;;;;;;4.20;2.87;;;14.00;85.70;;;;;;20922575;28;20033;-76
2021/04/08 13:27:26;;;;;;;6.27;3.10;;;13.40;82.70;;;;;;20935089;28;20040;-76
2021/04/08 13:37:27;;;;;;;6.53;3.70;;;14.00;82.60;;;;;;20954560;28;20033;-76
2021/04/08 13:47:29;;;;;;;4.97;2.80;;;12.30;82.60;;;;;;20982671;28;20036;-76
2021/04/08 13:57:30;;;;;;;5.10;2.72;;;13.40;80.90;;;;;;20991249;28;20042;-75
2021/04/08 14:07:30;;;;;;;5.03;2.30;;;13.60;75.70;;;;;;20922416;28;20064;-75
2021/04/08 14:17:31;;;;;;;5.45;3.13;;;13.30;77.50;;;;;;20902509;28;20029;-76
2021/04/08 14:27:32;;;;;;;5.35;2.80;;;13.30;73.10;;;;;;20930278;28;20037;-76
2021/04/08 14:37:34;;;;;;;6.65;3.08;;;13.70;79.00;;;;;;20942023;28;20143;-75
2021/04/08 14:47:35;;;;;;;9.00;5.50;;;12.70;77.70;;;;;;20954137;28;20062;-75
2021/04/08 14:57:36;;;;;;;10.25;4.28;;;13.70;73.60;;;;;;20941731;28;20064;-76
2021/04/08 15:07:37;;;;;;;3.25;2.35;;;13.50;74.90;;;;;;20926019;28;20041;-76
2021/04/08 15:17:39;;;;;;;5.85;2.22;;;14.40;74.50;;;;;;20965325;28;20402;-75
2021/04/08 15:27:40;;;;;;;;;;;13.70;76.90;;;;;;20908044;28;20037;-76
2021/04/08 15:37:40;;;;;;;3.75;2.20;;;13.10;73.60;;;;;;20897912;28;19917;-77
2021/04/08 15:47:42;;;;;;;4.60;1.73;;;13.20;73.80;;;;;;20877732;28;20523;-77
2021/04/08 15:57:45;;;;;;;3.70;2.17;;;14.00;72.10;;;;;;20934802;28;20037;-76
2021/04/08 16:07:46;;;;;;;6.97;2.50;;;13.70;68.90;;;;;;20970564;28;20071;-77
2021/04/08 16:17:47;;;;;;;4.60;2.30;;;12.60;72.80;;;;;;20978175;28;20048;-75
2021/04/08 16:27:48;;;;;;;6.05;2.08;;;12.20;70.40;;;;;;20935190;28;20491;-76
2021/04/08 16:37:49;;;;;;;3.85;2.05;;;12.40;69.40;;;;;;20953828;28;20036;-77
2021/04/08 16:47:49;;;;;;;6.75;2.63;;;12.00;74.20;;;;;;20956919;28;20036;-77
2021/04/08 16:57:50;;;;;;;8.05;2.45;;;11.70;70.70;;;;;;20952675;28;20507;-75
2021/04/08 17:07:51;;;;;;;3.35;1.80;;;11.60;71.50;;;;;;20953448;28;20028;-75
2021/04/08 17:17:52;;;;;;;3.20;1.48;;;11.30;72.10;;;;;;20954766;28;20047;-77
2021/04/08 17:27:53;;;;;;;5.38;1.95;;;11.10;75.20;;;;;;20955050;28;20036;-75
2021/04/08 17:37:54;;;;;;;5.93;1.60;;;10.80;78.60;;;;;;20942227;28;20335;-77
2021/04/08 17:47:55;;;;;;;4.93;3.22;;;10.40;84.90;;;;;;20956263;28;20036;-75
2021/04/08 17:57:56;;;;;;;3.50;1.65;;;10.20;87.50;;;;;;20932712;28;20095;-75
2021/04/08 18:07:57;;;;;;;3.07;1.87;;;9.30;90.00;;;;;;20896656;28;20120;-75
2021/04/08 18:17:58;;;;;;;6.63;2.10;;;8.00;93.80;;;;;;20966874;28;20037;-75
2021/04/08 18:27:59;;;;;;;6.53;3.20;;;7.60;94.70;;;;;;20957328;28;20081;-76
2021/04/08 18:38:00;;;;;;;3.20;1.87;;;7.00;98.00;;;;;;20938999;28;20037;-76
2021/04/08 18:48:01;;;;;;;4.57;2.73;;;6.50;99.90;;;;;;20932832;28;20504;-75
2021/04/08 18:58:03;;;;;;;4.27;2.23;;;5.70;99.90;;;;;;20936686;28;20119;-76
2021/04/08 19:08:07;;;;;;;8.95;3.72;;;5.40;99.90;;;;;;20930329;28;20184;-78
2021/04/08 19:18:08;;;;;;;11.20;4.57;;;4.80;99.90;;;;;;20939740;28;20025;-76
2021/04/08 19:28:10;;;;;;;11.52;5.05;;;4.50;99.90;;;;;;20925941;28;20052;-75
2021/04/08 19:38:11;;;;;;;11.20;4.50;;;4.10;99.90;;;;;;20931915;28;20040;-74
2021/04/08 19:48:12;;;;;;;12.35;4.80;;;3.60;99.90;;;;;;20955106;28;20024;-76
2021/04/08 19:58:13;;;;;;;9.53;4.50;;;4.30;99.90;;;;;;20944439;28;20032;-76
2021/04/08 20:08:14;;;;;;;11.30;4.53;;;4.20;99.90;;;;;;20961101;28;20036;-75
2021/04/08 20:18:15;;;;;;;6.17;3.70;;;3.40;99.90;;;;;;20969318;28;20041;-76
2021/04/08 20:28:16;;;;;;;9.13;4.20;;;3.50;99.90;;;;;;20970874;28;20036;-76
2021/04/08 20:38:17;;;;;;;8.73;4.35;;;2.60;99.90;;;;;;20956364;28;20032;-76
2021/04/08 20:48:18;;;;;;;8.93;4.10;;;2.90;99.90;;;;;;20950255;28;20040;-75
2021/04/08 20:58:19;;;;;;;;;;;2.50;99.90;;;;;;20939934;28;20360;-76
2021/04/08 21:08:20;;;;;;;9.68;3.67;;;2.60;99.90;;;;;;20936845;28;19912;-76
2021/04/08 21:18:21;;;;;;;11.38;4.70;;;2.90;99.90;;;;;;20955477;28;20025;-75
2021/04/08 21:28:21;;;;;;;10.35;4.35;;;2.60;99.90;;;;;;20968672;28;20055;-75
2021/04/08 21:38:23;;;;;;;8.80;4.40;;;2.40;99.90;;;;;;20944104;28;20500;-75
2021/04/08 21:48:24;;;;;;;;;;;2.60;99.90;;;;;;20955841;28;20025;-75
2021/04/08 21:58:24;;;;;;;9.73;4.38;;;2.40;99.90;;;;;;20951399;28;20397;-75
2021/04/08 22:08:25;;;;;;;12.93;5.20;;;2.50;99.90;;;;;;20952839;28;20028;-75
2021/04/08 22:18:26;;;;;;;10.27;4.82;;;1.70;99.90;;;;;;20930308;28;20021;-75
2021/04/08 22:28:29;;;;;;;;;;;1.50;99.90;;;;;;20925645;28;20041;-75
2021/04/08 22:38:30;;;;;;;9.27;4.20;;;1.20;99.90;;;;;;20942882;28;19916;-75
2021/04/08 22:48:31;;;;;;;11.35;4.80;;;1.50;99.90;;;;;;20910349;28;20032;-75
2021/04/08 22:58:34;;;;;;;9.63;4.80;;;1.40;99.90;;;;;;20909457;28;20037;-75
2021/04/08 23:08:35;;;;;;;12.75;5.25;;;1.30;99.90;;;;;;20907359;28;20043;-75
2021/04/08 23:18:36;;;;;;;13.23;5.00;;;1.20;99.90;;;;;;20906796;28;20036;-76
2021/04/08 23:28:37;;;;;;;10.27;5.40;;;0.90;99.90;;;;;;20907451;28;20108;-74
2021/04/08 23:38:37;;;;;;;;;;;1.00;99.90;;;;;;20907749;28;20057;-75
2021/04/08 23:48:38;;;;;;;9.95;4.72;;;1.10;99.90;;;;;;20905923;28;19909;-75
2021/04/08 23:58:39;;;;;;;13.77;5.38;;;0.80;99.90;;;;;;20905146;28;20033;-76
